createdAt,value
2022-12-31T00:00:50.689Z,48.33
2022-12-31T00:04:03.487Z,48.67
2022-12-31T00:07:06.099Z,49.33
2022-12-31T00:10:09.710Z,46.67
2022-12-31T00:13:13.396Z,53.00
2022-12-31T00:16:19.785Z,50.00
2022-12-31T00:19:22.416Z,53.00
2022-12-31T00:22:25.399Z,55.67
2022-12-31T00:25:27.978Z,49.67
2022-12-31T00:28:30.881Z,54.00
2022-12-31T00:31:35.929Z,44.67
2022-12-31T00:34:38.949Z,52.67
2022-12-31T00:37:41.599Z,50.33
2022-12-31T00:40:44.646Z,55.33
2022-12-31T00:43:47.841Z,52.67
2022-12-31T00:46:51.257Z,58.25
2022-12-31T00:49:53.886Z,51.67
2022-12-31T00:52:57.307Z,47.33
2022-12-31T00:56:08.962Z,55.33
2022-12-31T00:59:12.055Z,61.00
2022-12-31T01:02:14.875Z,57.00
2022-12-31T01:05:18.010Z,58.00
2022-12-31T01:08:20.610Z,57.00
2022-12-31T01:11:24.676Z,58.25
2022-12-31T01:14:27.371Z,56.67
2022-12-31T01:17:31.247Z,56.67
2022-12-31T01:20:39.111Z,51.00
2022-12-31T01:23:42.716Z,54.33
2022-12-31T01:26:45.905Z,58.00
2022-12-31T01:29:49.292Z,53.67
2022-12-31T01:32:51.860Z,55.00
2022-12-31T01:35:54.659Z,49.67
2022-12-31T01:38:59.573Z,56.33
2022-12-31T01:42:02.624Z,54.00
2022-12-31T01:45:11.267Z,52.00
2022-12-31T01:48:17.403Z,48.00
2022-12-31T01:51:20.888Z,49.33
2022-12-31T01:54:25.650Z,52.33
2022-12-31T01:57:28.368Z,52.33
2022-12-31T02:00:32.575Z,51.00
2022-12-31T02:03:35.652Z,50.67
2022-12-31T02:06:52.576Z,48.67
2022-12-31T02:09:55.316Z,33.00
2022-12-31T02:12:58.800Z,47.00
2022-12-31T02:16:08.512Z,50.67
2022-12-31T02:19:36.149Z,45.67
2022-12-31T02:22:44.583Z,46.33
2022-12-31T02:25:50.656Z,50.33
2022-12-31T02:29:17.635Z,47.33
2022-12-31T02:32:36.208Z,49.33
2022-12-31T02:35:58.804Z,49.67
2022-12-31T02:39:04.239Z,49.67
2022-12-31T02:42:07.285Z,49.67
2022-12-31T02:45:13.647Z,47.00
2022-12-31T02:48:46.077Z,47.00
2022-12-31T02:52:04.037Z,44.00
2022-12-31T02:55:41.730Z,47.00
2022-12-31T02:59:27.464Z,46.33
2022-12-31T03:02:31.653Z,21.33
2022-12-31T03:05:39.857Z,43.33
2022-12-31T03:09:01.767Z,43.00
2022-12-31T03:12:25.175Z,43.00
2022-12-31T03:15:30.594Z,43.33
2022-12-31T03:18:52.081Z,44.33
2022-12-31T03:22:13.287Z,45.00
2022-12-31T03:25:38.272Z,45.67
2022-12-31T03:28:43.580Z,43.67
2022-12-31T03:31:46.683Z,39.00
2022-12-31T03:34:50.052Z,43.00
2022-12-31T03:37:53.352Z,41.67
2022-12-31T03:40:56.211Z,41.00
2022-12-31T03:43:59.128Z,38.33
2022-12-31T03:47:01.733Z,35.00
2022-12-31T03:50:05.720Z,42.67
2022-12-31T03:53:08.419Z,38.67
2022-12-31T03:56:11.552Z,37.67
2022-12-31T03:59:14.218Z,40.67
2022-12-31T04:02:18.543Z,39.67
2022-12-31T04:05:23.324Z,43.33
2022-12-31T04:08:26.299Z,41.00
2022-12-31T04:11:28.865Z,32.00
2022-12-31T04:14:31.818Z,36.67
2022-12-31T04:17:34.431Z,41.33
2022-12-31T04:20:38.532Z,42.33
2022-12-31T04:23:40.943Z,39.67
2022-12-31T04:26:44.531Z,37.67
2022-12-31T04:29:47.107Z,42.00
2022-12-31T04:32:50.209Z,42.33
2022-12-31T04:35:52.713Z,41.00
2022-12-31T04:38:56.784Z,40.67
2022-12-31T04:41:59.403Z,42.00
2022-12-31T04:45:02.814Z,43.00
2022-12-31T04:48:05.771Z,40.00
2022-12-31T04:51:09.243Z,38.67
2022-12-31T04:54:11.825Z,41.67
2022-12-31T04:57:14.945Z,43.00
2022-12-31T05:00:17.659Z,44.00
2022-12-31T05:03:21.456Z,42.00
2022-12-31T05:06:24.362Z,34.67
2022-12-31T05:09:28.615Z,41.00
2022-12-31T05:12:31.330Z,41.00
2022-12-31T05:15:34.686Z,42.00
2022-12-31T05:18:37.641Z,41.33
2022-12-31T05:21:40.599Z,42.00
2022-12-31T05:24:43.217Z,37.33
2022-12-31T05:27:46.215Z,41.33
2022-12-31T05:30:51.129Z,40.00
2022-12-31T05:33:54.573Z,39.67
2022-12-31T05:36:57.173Z,42.33
2022-12-31T05:40:00.417Z,40.00
2022-12-31T05:43:02.890Z,38.00
2022-12-31T05:46:05.902Z,39.00
2022-12-31T05:49:08.555Z,37.33
2022-12-31T05:52:11.581Z,38.00
2022-12-31T05:55:14.248Z,36.33
2022-12-31T05:58:18.176Z,31.33
2022-12-31T06:01:20.839Z,41.00
2022-12-31T06:04:23.992Z,40.33
2022-12-31T06:07:26.685Z,38.33
2022-12-31T06:10:29.723Z,29.33
2022-12-31T06:13:32.173Z,39.00
2022-12-31T06:16:35.107Z,40.00
2022-12-31T06:19:37.671Z,34.67
2022-12-31T06:22:40.636Z,40.00
2022-12-31T06:25:43.499Z,40.67
2022-12-31T06:28:46.391Z,36.00
2022-12-31T06:31:48.952Z,32.00
2022-12-31T06:34:52.238Z,40.00
2022-12-31T06:37:54.886Z,37.00
2022-12-31T06:40:57.850Z,37.33
2022-12-31T06:44:00.480Z,36.00
2022-12-31T06:47:03.456Z,36.75
2022-12-31T06:50:07.340Z,33.00
2022-12-31T06:53:10.655Z,29.75
2022-12-31T06:56:27.857Z,30.00
2022-12-31T06:59:34.650Z,32.50
2022-12-31T07:02:58.207Z,28.25
2022-12-31T07:06:44.346Z,27.00
2022-12-31T07:09:58.032Z,34.00
2022-12-31T07:13:12.168Z,31.50
2022-12-31T07:16:39.553Z,31.75
2022-12-31T07:20:12.250Z,26.50
2022-12-31T07:23:15.283Z,28.75
2022-12-31T07:26:49.930Z,26.00
2022-12-31T07:30:30.847Z,32.25
2022-12-31T07:33:54.507Z,26.75
2022-12-31T07:37:20.742Z,28.75
2022-12-31T07:40:45.026Z,30.50
2022-12-31T07:44:06.571Z,27.75
2022-12-31T07:47:26.836Z,29.50
2022-12-31T07:50:29.935Z,25.50
2022-12-31T07:53:33.074Z,25.25
2022-12-31T07:56:35.913Z,26.00
2022-12-31T07:59:54.341Z,29.25
2022-12-31T08:03:11.342Z,27.50
2022-12-31T08:06:53.096Z,24.75
2022-12-31T08:10:15.658Z,29.25
2022-12-31T08:13:20.969Z,23.50
2022-12-31T08:16:23.859Z,26.25
2022-12-31T08:19:32.099Z,24.50
2022-12-31T08:22:43.369Z,27.25
2022-12-31T08:26:12.448Z,22.25
2022-12-31T08:29:26.441Z,22.50
2022-12-31T08:32:34.532Z,25.25
2022-12-31T08:36:02.753Z,21.50
2022-12-31T08:39:38.267Z,26.50
2022-12-31T08:43:04.923Z,18.25
2022-12-31T08:46:16.022Z,22.75
2022-12-31T08:49:18.867Z,22.75
2022-12-31T08:52:26.357Z,25.25
2022-12-31T08:55:29.184Z,24.75
2022-12-31T08:58:50.548Z,26.25
2022-12-31T09:02:08.539Z,20.00
2022-12-31T09:05:54.438Z,24.25
2022-12-31T09:09:24.605Z,19.75
2022-12-31T09:13:00.219Z,23.00
2022-12-31T09:16:17.468Z,21.25
2022-12-31T09:19:20.333Z,22.25
2022-12-31T09:22:23.333Z,19.00
2022-12-31T09:25:27.131Z,23.00
2022-12-31T09:28:52.760Z,22.25
2022-12-31T09:31:58.420Z,20.00
2022-12-31T09:35:40.413Z,18.50
2022-12-31T09:39:15.039Z,18.50
2022-12-31T09:42:35.799Z,19.25
2022-12-31T09:46:12.433Z,18.50
2022-12-31T09:49:33.547Z,20.00
2022-12-31T09:53:12.774Z,19.00
2022-12-31T09:56:27.593Z,20.25
2022-12-31T09:59:34.883Z,20.50
2022-12-31T10:03:02.239Z,20.00
2022-12-31T10:06:23.894Z,17.25
2022-12-31T10:09:41.984Z,19.50
2022-12-31T10:13:13.986Z,20.25
2022-12-31T10:16:25.729Z,19.75
2022-12-31T10:19:50.387Z,25.00
2022-12-31T10:23:15.479Z,25.00
2022-12-31T10:26:29.416Z,21.25
2022-12-31T10:29:34.912Z,17.00
2022-12-31T10:32:46.037Z,17.00
2022-12-31T10:35:58.416Z,17.50
2022-12-31T10:39:08.951Z,44.50
2022-12-31T10:42:26.326Z,17.00
2022-12-31T10:46:07.895Z,16.75
2022-12-31T10:49:21.586Z,16.50
2022-12-31T10:52:43.617Z,10.00
2022-12-31T10:56:34.981Z,12.00
2022-12-31T10:59:43.765Z,13.75
2022-12-31T11:03:22.154Z,12.00
2022-12-31T11:06:59.539Z,12.75
2022-12-31T11:10:31.753Z,11.00
2022-12-31T11:13:46.103Z,14.75
2022-12-31T11:17:04.044Z,15.75
2022-12-31T11:20:44.220Z,13.00
2022-12-31T11:24:10.581Z,15.50
2022-12-31T11:27:37.072Z,14.25
2022-12-31T11:31:11.782Z,13.50
2022-12-31T11:34:37.892Z,12.00
2022-12-31T11:37:43.169Z,11.00
2022-12-31T11:41:26.465Z,14.25
2022-12-31T11:44:47.024Z,10.75
2022-12-31T11:48:32.241Z,12.00
2022-12-31T11:52:02.949Z,13.00
2022-12-31T11:55:16.922Z,12.75
2022-12-31T11:58:28.843Z,9.25
2022-12-31T12:02:03.663Z,12.00
2022-12-31T12:05:10.992Z,11.75
2022-12-31T12:08:15.161Z,11.50
2022-12-31T12:11:27.986Z,31.50
2022-12-31T12:14:35.702Z,12.50
2022-12-31T12:17:39.685Z,12.25
2022-12-31T12:20:44.886Z,11.75
2022-12-31T12:24:16.991Z,12.25
2022-12-31T12:27:22.426Z,13.00
2022-12-31T12:30:28.416Z,14.50
2022-12-31T12:33:42.709Z,10.50
2022-12-31T12:36:48.488Z,11.25
2022-12-31T12:40:09.774Z,12.75
2022-12-31T12:43:23.601Z,16.00
2022-12-31T12:46:43.551Z,11.25
2022-12-31T12:49:50.164Z,11.50
2022-12-31T12:53:14.735Z,14.25
2022-12-31T12:56:25.010Z,12.50
2022-12-31T12:59:37.069Z,12.00
2022-12-31T13:02:54.887Z,12.25
2022-12-31T13:06:09.736Z,13.75
2022-12-31T13:09:12.205Z,12.25
2022-12-31T13:12:17.440Z,14.50
2022-12-31T13:15:30.040Z,13.00
2022-12-31T13:18:43.846Z,12.50
2022-12-31T13:22:05.365Z,10.75
2022-12-31T13:25:23.478Z,10.75
2022-12-31T13:28:26.863Z,11.00
2022-12-31T13:31:34.373Z,8.75
2022-12-31T13:34:42.591Z,10.00
2022-12-31T13:37:45.832Z,12.00
2022-12-31T13:40:57.774Z,10.00
2022-12-31T13:44:34.832Z,10.25
2022-12-31T13:48:01.995Z,11.75
2022-12-31T13:51:18.644Z,10.25
2022-12-31T13:54:51.944Z,12.00
2022-12-31T13:58:17.318Z,12.50
2022-12-31T14:01:38.383Z,11.00
2022-12-31T14:04:47.925Z,12.00
2022-12-31T14:07:59.491Z,11.00
2022-12-31T14:11:28.024Z,11.75
2022-12-31T14:14:47.015Z,14.00
2022-12-31T14:18:05.228Z,16.50
2022-12-31T14:21:22.299Z,12.50
2022-12-31T14:24:37.396Z,13.00
2022-12-31T14:27:42.650Z,14.25
2022-12-31T14:30:46.638Z,12.00
2022-12-31T14:34:09.147Z,12.25
2022-12-31T14:37:16.777Z,14.00
2022-12-31T14:40:37.408Z,16.75
2022-12-31T14:43:49.231Z,17.50
2022-12-31T14:46:57.764Z,13.25
2022-12-31T14:50:05.620Z,17.75
2022-12-31T14:53:16.109Z,12.25
2022-12-31T14:56:41.276Z,13.00
2022-12-31T14:59:58.358Z,12.00
2022-12-31T15:03:07.545Z,17.00
2022-12-31T15:06:36.307Z,12.50
2022-12-31T15:10:15.503Z,11.50
2022-12-31T15:13:21.539Z,13.00
2022-12-31T15:16:52.385Z,14.50
2022-12-31T15:20:32.749Z,14.00
2022-12-31T15:23:38.107Z,14.50
2022-12-31T15:26:48.838Z,12.00
2022-12-31T15:29:51.946Z,12.50
2022-12-31T15:32:55.926Z,12.75
2022-12-31T15:36:18.308Z,12.75
2022-12-31T15:39:43.566Z,9.00
2022-12-31T15:42:55.662Z,13.00
2022-12-31T15:45:58.349Z,13.00
2022-12-31T15:49:15.301Z,13.25
2022-12-31T15:52:27.408Z,12.75
2022-12-31T15:55:38.835Z,14.00
2022-12-31T15:58:41.849Z,13.00
2022-12-31T16:01:46.391Z,15.50
2022-12-31T16:04:49.669Z,14.00
2022-12-31T16:07:57.509Z,13.75
2022-12-31T16:11:04.862Z,14.00
2022-12-31T16:14:07.927Z,13.75
2022-12-31T16:17:28.543Z,13.00
2022-12-31T16:20:33.512Z,14.00
2022-12-31T16:23:40.489Z,13.00
2022-12-31T16:26:50.886Z,10.25
2022-12-31T16:30:07.489Z,14.75
2022-12-31T16:33:15.017Z,13.75
2022-12-31T16:36:21.541Z,12.25
2022-12-31T16:39:26.508Z,19.50
2022-12-31T16:42:29.634Z,22.50
2022-12-31T16:45:35.347Z,21.25
2022-12-31T16:48:38.741Z,17.50
2022-12-31T16:51:42.452Z,19.00
2022-12-31T16:54:49.161Z,16.75
2022-12-31T16:57:56.033Z,14.00
2022-12-31T17:01:12.406Z,13.75
2022-12-31T17:04:20.174Z,14.75
2022-12-31T17:07:33.696Z,12.75
2022-12-31T17:10:37.027Z,13.00
2022-12-31T17:13:39.701Z,14.50
2022-12-31T17:17:04.464Z,15.50
2022-12-31T17:20:11.751Z,13.25
2022-12-31T17:23:23.496Z,16.75
2022-12-31T17:26:31.289Z,15.00
2022-12-31T17:29:34.827Z,14.75
2022-12-31T17:32:38.010Z,17.50
2022-12-31T17:35:42.624Z,16.75
2022-12-31T17:38:45.241Z,14.50
2022-12-31T17:41:50.507Z,15.50
2022-12-31T17:44:57.224Z,13.75
2022-12-31T17:48:00.107Z,13.00
2022-12-31T17:51:02.863Z,15.75
2022-12-31T17:54:16.687Z,13.75
2022-12-31T17:57:27.150Z,14.50
2022-12-31T18:00:30.279Z,17.75
2022-12-31T18:03:32.967Z,13.25
2022-12-31T18:06:36.328Z,14.75
2022-12-31T18:09:38.985Z,14.75
2022-12-31T18:12:43.699Z,14.25
2022-12-31T18:15:47.057Z,15.75
2022-12-31T18:18:49.958Z,15.75
2022-12-31T18:21:52.411Z,16.75
2022-12-31T18:24:55.461Z,20.25
2022-12-31T18:27:58.166Z,20.00
2022-12-31T18:31:01.567Z,18.00
2022-12-31T18:34:04.121Z,15.25
2022-12-31T18:37:17.921Z,17.50
2022-12-31T18:40:24.057Z,15.00
2022-12-31T18:43:26.927Z,18.50
2022-12-31T18:46:29.460Z,15.00
2022-12-31T18:49:32.524Z,15.25
2022-12-31T18:52:35.142Z,15.00
2022-12-31T18:55:46.127Z,14.50
2022-12-31T18:58:49.420Z,17.00
2022-12-31T19:01:52.603Z,17.25
2022-12-31T19:04:55.084Z,15.00
2022-12-31T19:07:58.491Z,16.00
2022-12-31T19:11:01.746Z,15.00
2022-12-31T19:14:12.198Z,15.00
2022-12-31T19:17:14.909Z,15.75
2022-12-31T19:20:17.972Z,18.25
2022-12-31T19:23:21.817Z,16.75
2022-12-31T19:26:24.933Z,15.00
2022-12-31T19:29:28.655Z,14.25
2022-12-31T19:32:31.501Z,14.00
2022-12-31T19:35:34.161Z,13.00
2022-12-31T19:38:37.534Z,15.75
2022-12-31T19:41:42.572Z,17.25
2022-12-31T19:44:45.658Z,17.75
2022-12-31T19:47:48.989Z,19.00
2022-12-31T19:50:54.019Z,20.00
2022-12-31T19:53:56.565Z,16.75
2022-12-31T19:56:59.743Z,15.50
2022-12-31T20:00:02.186Z,17.25
2022-12-31T20:03:15.677Z,18.50
2022-12-31T20:06:19.488Z,16.25
2022-12-31T20:09:22.267Z,15.00
2022-12-31T20:12:24.859Z,7.25
2022-12-31T20:15:27.846Z,15.50
2022-12-31T20:18:30.484Z,16.25
2022-12-31T20:21:33.349Z,15.50
2022-12-31T20:24:35.916Z,15.75
2022-12-31T20:27:38.983Z,15.75
2022-12-31T20:30:41.639Z,15.75
2022-12-31T20:33:45.176Z,15.00
2022-12-31T20:36:47.668Z,14.00
2022-12-31T20:39:50.680Z,16.25
2022-12-31T20:42:53.490Z,12.00
2022-12-31T20:45:56.327Z,13.00
2022-12-31T20:49:00.492Z,15.75
2022-12-31T20:52:05.705Z,17.00
2022-12-31T20:55:10.066Z,14.00
2022-12-31T20:58:13.043Z,15.00
2022-12-31T21:01:16.732Z,7.25
2022-12-31T21:04:20.130Z,14.50
2022-12-31T21:07:22.850Z,13.00
2022-12-31T21:10:25.711Z,15.25
2022-12-31T21:13:28.457Z,15.25
2022-12-31T21:16:32.136Z,14.25
2022-12-31T21:19:34.703Z,18.00
2022-12-31T21:22:38.138Z,18.50
2022-12-31T21:25:41.913Z,16.25
2022-12-31T21:28:45.163Z,15.00
2022-12-31T21:31:47.611Z,16.25
2022-12-31T21:35:14.549Z,19.00
2022-12-31T21:38:13.310Z,14.50
2022-12-31T21:41:35.265Z,14.75
2022-12-31T21:44:38.071Z,19.75
2022-12-31T21:47:59.506Z,14.25
2022-12-31T21:51:09.523Z,15.00
2022-12-31T21:54:32.498Z,18.00
2022-12-31T21:57:52.188Z,14.50
2022-12-31T22:01:17.566Z,16.00
2022-12-31T22:04:59.896Z,14.00
2022-12-31T22:07:43.249Z,14.00
2022-12-31T22:10:52.134Z,14.50
2022-12-31T22:13:56.357Z,9.25
2022-12-31T22:16:59.016Z,16.75
2022-12-31T22:20:26.513Z,14.00
2022-12-31T22:23:24.493Z,13.25
2022-12-31T22:26:29.369Z,14.50
2022-12-31T22:29:31.801Z,10.00
2022-12-31T22:32:34.879Z,15.25
2022-12-31T22:35:37.504Z,14.00
2022-12-31T22:38:40.750Z,18.00
2022-12-31T22:41:43.688Z,8.50
2022-12-31T22:44:46.625Z,15.50
2022-12-31T22:47:49.220Z,14.50
2022-12-31T22:50:58.956Z,15.50
2022-12-31T22:54:01.430Z,14.75
2022-12-31T22:57:04.899Z,18.25
2022-12-31T23:00:12.744Z,13.75
2022-12-31T23:03:15.744Z,15.00
2022-12-31T23:06:18.889Z,19.00
2022-12-31T23:09:40.741Z,29.50
2022-12-31T23:12:43.454Z,26.00
2022-12-31T23:16:04.910Z,28.75
2022-12-31T23:19:28.163Z,29.00
2022-12-31T23:22:49.562Z,30.25
2022-12-31T23:25:52.952Z,29.00
2022-12-31T23:28:55.698Z,20.50
2022-12-31T23:31:58.295Z,16.75
2022-12-31T23:35:06.086Z,22.25
2022-12-31T23:38:12.825Z,20.25
2022-12-31T23:41:19.193Z,18.50
2022-12-31T23:44:21.840Z,17.75
2022-12-31T23:47:24.959Z,18.75
2022-12-31T23:50:27.708Z,16.50
2022-12-31T23:53:30.487Z,17.50
2022-12-31T23:56:33.169Z,19.25
2022-12-31T23:59:36.029Z,19.00
